Time;durP1;ratioP1;P1;durP2;ratioP2;P2;SDS_P1;SDS_P2;PMS_P1;PMS_P2;Temp;Humidity;BMP_temperature;BMP_pressure;BME280_temperature;BME280_humidity;BME280_pressure;Samples;Min_cycle;Max_cycle;Signal;HPM_P1;HPM_P2
2021/01/26 00:02:21;;;;;;;39.20;21.83;;;;;;;0.89;99.82;100004.78;5222485;28;20048;-81
2021/01/26 00:04:51;;;;;;;35.67;21.92;;;;;;;0.86;99.72;100003.09;5219692;28;20124;-81
2021/01/26 00:07:22;;;;;;;37.10;21.02;;;;;;;0.86;99.13;100010.78;5223920;28;20649;-81
2021/01/26 00:09:52;;;;;;;35.92;21.50;;;;;;;0.90;99.27;100015.06;5223139;28;20059;-81
2021/01/26 00:12:22;;;;;;;33.83;21.60;;;;;;;0.96;99.23;100014.16;5222915;28;20033;-82
2021/01/26 00:14:53;;;;;;;40.47;22.60;;;;;;;1.01;98.43;100004.69;5223933;28;20035;-82
2021/01/26 00:17:23;;;;;;;38.83;21.55;;;;;;;1.00;98.21;100016.72;5222582;28;20123;-81
2021/01/26 00:19:53;;;;;;;35.17;21.58;;;;;;;1.02;98.10;100014.13;5224137;28;20708;-81
2021/01/26 00:22:23;;;;;;;38.70;21.58;;;;;;;1.00;98.64;100016.72;5224811;28;20024;-82
2021/01/26 00:24:54;;;;;;;35.80;22.05;;;;;;;1.18;98.47;100014.03;5227935;28;20025;-82
2021/01/26 00:27:24;;;;;;;36.63;22.38;;;;;;;1.21;98.11;100008.00;5228096;28;20068;-81
2021/01/26 00:29:54;;;;;;;35.55;21.42;;;;;;;1.12;97.99;100006.34;5227460;28;20024;-81
2021/01/26 00:32:24;;;;;;;37.13;21.48;;;;;;;1.13;98.43;100000.34;5228090;28;20017;-81
2021/01/26 00:34:55;;;;;;;37.05;21.92;;;;;;;1.07;98.25;100002.09;5227112;28;20215;-81
2021/01/26 00:37:25;;;;;;;38.63;22.45;;;;;;;0.82;100.00;100000.53;5227902;28;20032;-82
2021/01/26 00:39:55;;;;;;;37.42;23.00;;;;;;;0.75;100.00;99998.88;5226963;28;20133;-82
2021/01/26 00:42:25;;;;;;;37.20;22.40;;;;;;;0.74;100.00;99997.16;5225694;28;20047;-82
2021/01/26 00:44:56;;;;;;;42.00;23.30;;;;;;;0.65;100.00;100005.78;5227233;28;20033;-82
2021/01/26 00:47:27;;;;;;;35.88;23.40;;;;;;;0.64;100.00;99996.38;5225894;28;20029;-82
2021/01/26 00:49:57;;;;;;;36.47;23.30;;;;;;;0.86;100.00;100005.66;5226592;28;20021;-82
2021/01/26 00:52:27;;;;;;;35.35;22.88;;;;;;;1.05;100.00;99994.38;5225939;28;20029;-82
2021/01/26 00:54:58;;;;;;;40.00;21.65;;;;;;;1.04;99.42;99997.81;5225312;28;20498;-82
2021/01/26 00:57:28;;;;;;;37.80;22.88;;;;;;;0.78;100.00;99999.72;5228391;28;20055;-82
2021/01/26 00:59:59;;;;;;;38.92;23.95;;;;;;;0.83;100.00;99999.66;5225937;28;20064;-82
2021/01/26 01:02:29;;;;;;;40.20;22.95;;;;;;;1.02;100.00;100001.25;5226027;28;20463;-82
2021/01/26 01:04:59;;;;;;;38.92;23.13;;;;;;;1.08;100.00;99989.22;5225783;28;20025;-81
2021/01/26 01:07:29;;;;;;;38.55;22.85;;;;;;;1.20;99.62;99994.28;5225926;28;20048;-82
2021/01/26 01:10:00;;;;;;;36.65;22.98;;;;;;;0.99;100.00;99993.56;5212204;28;20104;-82
2021/01/26 01:12:30;;;;;;;40.47;23.58;;;;;;;0.93;100.00;99994.44;5220546;28;20051;-82
2021/01/26 01:15:00;;;;;;;38.70;24.40;;;;;;;0.96;100.00;99994.47;5224321;28;20032;-82
2021/01/26 01:17:30;;;;;;;42.20;23.73;;;;;;;1.15;99.93;99985.75;5225353;28;20039;-82
2021/01/26 01:20:01;;;;;;;35.70;22.23;;;;;;;1.04;100.00;99996.97;5224626;28;20025;-82
2021/01/26 01:22:32;;;;;;;41.67;23.27;;;;;;;1.09;99.67;99996.06;5225748;28;20029;-82
2021/01/26 01:25:03;;;;;;;41.38;23.55;;;;;;;1.12;100.00;99990.91;5224949;28;20727;-82
2021/01/26 01:27:33;;;;;;;42.80;22.85;;;;;;;1.21;100.00;99977.97;5224934;28;20021;-82
2021/01/26 01:30:07;;;;;;;35.13;22.38;;;;;;;1.24;100.00;99989.97;5224762;28;20052;-82
2021/01/26 01:32:38;;;;;;;37.03;22.73;;;;;;;1.19;100.00;99986.56;5224471;28;20037;-81
2021/01/26 01:35:09;;;;;;;36.45;22.95;;;;;;;1.24;100.00;99980.50;5223854;28;20623;-82
2021/01/26 01:37:39;;;;;;;40.22;23.85;;;;;;;1.26;100.00;99977.94;5223752;28;20464;-82
2021/01/26 01:40:13;;;;;;;41.72;23.88;;;;;;;1.31;100.00;99977.03;5224689;28;20021;-82
2021/01/26 01:42:43;;;;;;;40.72;23.92;;;;;;;1.25;100.00;99981.38;5224208;28;20513;-81
2021/01/26 01:45:15;;;;;;;37.65;22.58;;;;;;;1.23;100.00;99968.50;5223728;28;20032;-82
2021/01/26 01:47:55;;;;;;;35.35;22.60;;;;;;;1.34;100.00;99961.56;5223553;28;20024;-82
2021/01/26 01:50:34;;;;;;;38.00;23.15;;;;;;;1.26;100.00;99968.47;5225263;28;20029;-82
2021/01/26 01:53:27;;;;;;;37.22;21.75;;;;;;;0.98;100.00;99966.13;5222673;28;20021;-82
2021/01/26 01:56:06;;;;;;;37.63;22.02;;;;;;;1.01;100.00;99969.56;5225071;28;20025;-82
2021/01/26 01:58:46;;;;;;;34.90;21.60;;;;;;;1.13;100.00;99974.63;5223553;28;20501;-82
2021/01/26 02:01:19;;;;;;;31.77;20.48;;;;;;;1.21;100.00;99975.41;5223924;28;20208;-82
2021/01/26 02:03:52;;;;;;;28.13;19.08;;;;;;;1.35;100.00;99973.56;5230644;28;20059;-82
2021/01/26 02:06:27;;;;;;;30.70;19.13;;;;;;;1.55;100.00;99963.94;5226117;28;20503;-82
2021/01/26 02:09:04;;;;;;;;;;;;;;;1.36;100.00;99964.09;5225853;28;20092;-82
2021/01/26 02:11:34;;;;;;;;;;;;;;;1.33;100.00;99959.88;5225974;28;19963;-82
2021/01/26 02:14:05;;;;;;;27.75;17.50;;;;;;;1.46;100.00;99958.03;5225430;28;19908;-82
2021/01/26 02:16:50;;;;;;;29.90;17.48;;;;;;;1.57;100.00;99959.63;5225599;28;20044;-82
2021/01/26 02:19:29;;;;;;;28.88;17.50;;;;;;;1.58;100.00;99956.19;5225672;28;20475;-82
2021/01/26 02:22:45;;;;;;;26.40;17.77;;;;;;;1.56;100.00;99957.91;5222570;28;20475;-82
2021/01/26 02:25:45;;;;;;;29.38;17.52;;;;;;;1.68;100.00;99954.38;5225916;28;20029;-82
2021/01/26 02:28:35;;;;;;;26.95;17.85;;;;;;;1.36;100.00;99957.25;5229143;28;20407;-82
2021/01/26 02:31:29;;;;;;;30.13;17.35;;;;;;;1.28;100.00;99956.47;5225369;28;20490;-82
2021/01/26 02:34:42;;;;;;;27.60;17.95;;;;;;;1.12;100.00;99954.03;5224484;28;20021;-82
2021/01/26 02:37:27;;;;;;;24.80;16.60;;;;;;;1.23;100.00;99963.38;5224610;28;20089;-82
2021/01/26 02:40:36;;;;;;;29.85;17.55;;;;;;;1.18;100.00;99965.13;5225045;28;20086;-82
2021/01/26 02:43:30;;;;;;;26.48;16.77;;;;;;;1.16;100.00;99966.00;5223496;28;20153;-82
2021/01/26 02:46:12;;;;;;;28.23;18.05;;;;;;;1.24;100.00;99965.06;5224043;28;20052;-82
2021/01/26 02:49:01;;;;;;;34.83;20.50;;;;;;;1.31;100.00;99958.16;5223789;28;20159;-82
2021/01/26 02:51:45;;;;;;;33.35;20.35;;;;;;;1.32;100.00;99962.44;5224126;28;20653;-82
2021/01/26 02:54:19;;;;;;;33.10;21.10;;;;;;;1.42;100.00;99964.91;5224401;28;20029;-82
2021/01/26 02:57:06;;;;;;;34.00;20.65;;;;;;;1.37;100.00;99956.38;5229430;28;20158;-82
2021/01/26 02:59:46;;;;;;;30.50;20.00;;;;;;;1.65;100.00;99954.41;5224975;28;20041;-82
2021/01/26 03:02:33;;;;;;;31.85;19.75;;;;;;;1.49;100.00;99958.84;5225016;28;20491;-82
2021/01/26 03:05:23;;;;;;;32.33;20.27;;;;;;;1.65;100.00;99960.44;5223433;28;20042;-82
2021/01/26 03:08:00;;;;;;;32.17;20.75;;;;;;;1.69;100.00;99964.66;5225176;28;20044;-82
2021/01/26 03:10:36;;;;;;;32.17;19.48;;;;;;;1.61;100.00;99966.44;5224942;28;20606;-82
2021/01/26 03:13:10;;;;;;;32.55;19.35;;;;;;;1.56;100.00;99968.22;5224706;28;20025;-82
2021/01/26 03:15:48;;;;;;;32.00;20.38;;;;;;;1.69;100.00;99963.78;5224694;28;20119;-82
2021/01/26 03:18:28;;;;;;;32.35;20.77;;;;;;;1.47;100.00;99963.19;5224812;28;20579;-82
2021/01/26 03:21:02;;;;;;;33.80;21.30;;;;;;;1.47;100.00;99958.03;5223000;28;20049;-82
2021/01/26 03:23:38;;;;;;;31.83;21.27;;;;;;;1.35;100.00;99955.56;5223948;28;20021;-82
2021/01/26 03:26:20;;;;;;;31.25;21.02;;;;;;;1.25;100.00;99966.78;5225120;28;20032;-82
2021/01/26 03:28:56;;;;;;;31.45;21.00;;;;;;;1.42;100.00;99961.50;5223892;28;20024;-82
2021/01/26 03:31:38;;;;;;;33.00;21.63;;;;;;;1.35;100.00;99958.13;5223358;28;20035;-82
2021/01/26 03:34:08;;;;;;;34.22;20.65;;;;;;;1.35;100.00;99963.28;5222445;28;20046;-82
2021/01/26 03:36:40;;;;;;;31.25;20.70;;;;;;;1.47;100.00;99960.59;5225578;28;20041;-82
2021/01/26 03:39:11;;;;;;;28.75;18.83;;;;;;;1.44;100.00;99962.34;5222898;28;20053;-82
2021/01/26 03:41:42;;;;;;;28.58;18.95;;;;;;;1.51;100.00;99957.13;5224107;28;20063;-82
2021/01/26 03:44:13;;;;;;;28.60;17.73;;;;;;;1.48;100.00;99953.72;5223388;28;20033;-81
2021/01/26 03:46:46;;;;;;;26.25;17.35;;;;;;;1.39;100.00;99943.53;5223732;28;20086;-82
2021/01/26 03:49:28;;;;;;;27.40;17.90;;;;;;;1.39;100.00;99946.09;5223389;28;20708;-82
2021/01/26 03:52:15;;;;;;;29.48;18.02;;;;;;;1.44;100.00;99950.31;5223432;28;20555;-82
2021/01/26 03:54:53;;;;;;;30.02;17.90;;;;;;;1.32;100.00;99942.72;5223302;28;20736;-82
2021/01/26 03:57:58;;;;;;;26.40;17.38;;;;;;;1.45;100.00;99939.19;5228818;28;20048;-82
2021/01/26 04:00:56;;;;;;;27.10;17.10;;;;;;;1.46;100.00;99943.44;5223833;28;20029;-82
2021/01/26 04:03:47;;;;;;;25.38;16.77;;;;;;;1.51;100.00;99939.09;5217732;28;20032;-82
2021/01/26 04:06:29;;;;;;;27.98;16.48;;;;;;;1.50;100.00;99937.41;5219944;28;20056;-82
2021/01/26 04:09:06;;;;;;;24.02;15.43;;;;;;;1.48;100.00;99935.69;5222712;28;20036;-82
2021/01/26 04:11:54;;;;;;;24.10;15.75;;;;;;;1.44;100.00;99937.44;5221361;28;20021;-82
2021/01/26 04:14:32;;;;;;;25.58;16.02;;;;;;;1.37;100.00;99935.81;5221869;28;20100;-82
2021/01/26 04:17:15;;;;;;;29.23;18.45;;;;;;;1.43;100.00;99933.16;5222183;28;20039;-82
2021/01/26 04:19:54;;;;;;;31.25;18.35;;;;;;;1.24;100.00;99934.19;5222259;28;20656;-82
2021/01/26 04:22:25;;;;;;;31.38;19.40;;;;;;;1.16;100.00;99927.41;5221527;28;20522;-82
2021/01/26 04:24:56;;;;;;;30.58;18.95;;;;;;;1.12;100.00;99924.03;5220993;28;20033;-82
2021/01/26 04:27:26;;;;;;;31.13;19.40;;;;;;;1.18;100.00;99925.66;5222580;28;20126;-82
2021/01/26 04:29:56;;;;;;;30.65;19.58;;;;;;;1.21;100.00;99928.25;5222155;28;20499;-82
2021/01/26 04:32:26;;;;;;;29.40;19.52;;;;;;;1.14;100.00;99940.31;5221878;28;20074;-82
2021/01/26 04:34:57;;;;;;;34.38;19.98;;;;;;;1.11;100.00;99926.59;5220431;28;20017;-82
2021/01/26 04:37:27;;;;;;;30.15;18.92;;;;;;;1.28;100.00;99928.19;5220615;28;20104;-82
2021/01/26 04:39:57;;;;;;;29.13;18.70;;;;;;;1.19;100.00;99929.94;5221206;28;20025;-82
2021/01/26 04:42:32;;;;;;;31.83;19.90;;;;;;;1.18;100.00;99926.53;5222501;28;20025;-82
2021/01/26 04:45:10;;;;;;;29.67;18.92;;;;;;;1.19;100.00;99930.81;5223040;28;20041;-82
2021/01/26 04:48:06;;;;;;;28.48;18.60;;;;;;;1.39;100.00;99928.09;5223362;28;20029;-82
2021/01/26 04:51:03;;;;;;;31.00;19.75;;;;;;;1.08;100.00;99932.63;5222231;28;20025;-82
2021/01/26 04:54:05;;;;;;;26.73;17.98;;;;;;;1.26;100.00;99939.34;5222542;28;20028;-83
2021/01/26 04:56:51;;;;;;;27.70;18.48;;;;;;;1.11;100.00;99937.75;5225049;28;20037;-84
2021/01/26 04:59:28;;;;;;;;;;;;;;;1.12;100.00;99939.47;5222284;28;20048;-83
2021/01/26 05:02:35;;;;;;;28.80;17.63;;;;;;;1.12;100.00;99941.16;5221724;28;19912;-83
2021/01/26 05:05:11;;;;;;;29.20;18.52;;;;;;;1.20;100.00;99942.81;5220406;28;20041;-83
2021/01/26 05:07:49;;;;;;;31.30;19.73;;;;;;;1.34;100.00;99938.41;5221936;28;20036;-83
2021/01/26 05:10:28;;;;;;;27.95;18.25;;;;;;;1.35;100.00;99937.53;5226258;28;20021;-83
2021/01/26 05:13:05;;;;;;;27.55;18.98;;;;;;;1.32;100.00;99935.00;5225278;28;20033;-83
2021/01/26 05:15:38;;;;;;;27.85;18.60;;;;;;;1.29;100.00;99940.19;5226284;28;20032;-83
2021/01/26 05:18:34;;;;;;;27.45;18.38;;;;;;;1.21;100.00;99943.69;5225755;28;20051;-83
2021/01/26 05:21:10;;;;;;;21.50;14.27;;;;;;;1.09;100.00;99939.47;5223436;28;20518;-83
2021/01/26 05:23:49;;;;;;;29.67;19.80;;;;;;;1.28;100.00;99941.03;5225267;28;20029;-84
2021/01/26 05:26:19;;;;;;;30.38;19.80;;;;;;;1.43;100.00;99940.88;5224569;28;20024;-83
2021/01/26 05:28:50;;;;;;;30.55;19.10;;;;;;;1.40;100.00;99940.91;5225668;28;20025;-84
2021/01/26 05:31:28;;;;;;;29.25;19.35;;;;;;;1.42;100.00;99943.50;5225320;28;20117;-83
2021/01/26 05:34:06;;;;;;;30.17;18.95;;;;;;;1.28;100.00;99946.19;5224917;28;20017;-83
2021/01/26 05:36:38;;;;;;;30.67;19.20;;;;;;;1.30;100.00;99949.59;5224332;28;20021;-83
2021/01/26 05:39:15;;;;;;;32.10;18.67;;;;;;;1.47;100.00;99947.72;5219249;28;20494;-83
2021/01/26 05:41:45;;;;;;;31.27;19.58;;;;;;;1.41;100.00;99952.06;5225218;28;20044;-83
2021/01/26 05:44:18;;;;;;;32.20;20.25;;;;;;;1.46;100.00;99951.16;5224785;28;20746;-83
2021/01/26 05:46:48;;;;;;;30.83;20.08;;;;;;;1.48;100.00;99957.16;5223637;28;20536;-83
2021/01/26 05:49:36;;;;;;;34.72;20.20;;;;;;;1.68;100.00;99965.53;5225462;28;20096;-83
2021/01/26 05:52:08;;;;;;;32.83;19.52;;;;;;;1.63;100.00;99964.75;5228048;28;20028;-83
2021/01/26 05:54:49;;;;;;;33.17;20.38;;;;;;;1.40;100.00;99961.50;5224063;28;20024;-83
2021/01/26 05:57:33;;;;;;;31.20;20.67;;;;;;;1.34;100.00;99965.84;5224467;28;20032;-83
2021/01/26 06:00:18;;;;;;;33.17;21.05;;;;;;;1.47;100.00;99963.19;5221999;28;20025;-83
2021/01/26 06:03:08;;;;;;;34.92;21.50;;;;;;;1.37;100.00;99971.81;5221673;28;20361;-83
2021/01/26 06:05:40;;;;;;;32.60;21.50;;;;;;;1.40;100.00;99970.97;5221166;28;20040;-83
2021/01/26 06:08:13;;;;;;;38.13;22.65;;;;;;;1.13;100.00;99979.75;5223955;28;20056;-83
2021/01/26 06:10:45;;;;;;;38.17;23.52;;;;;;;1.09;100.00;99979.78;5224505;28;20032;-83
2021/01/26 06:13:24;;;;;;;37.47;23.92;;;;;;;1.03;100.00;99985.00;5223524;28;20029;-83
2021/01/26 06:16:12;;;;;;;37.83;24.48;;;;;;;1.09;100.00;99985.78;5222780;28;20025;-83
2021/01/26 06:18:57;;;;;;;36.40;22.88;;;;;;;1.27;100.00;99990.78;5222870;28;20025;-83
2021/01/26 06:21:47;;;;;;;38.88;23.30;;;;;;;1.14;100.00;99996.91;5222936;28;20071;-84
2021/01/26 06:24:24;;;;;;;41.50;23.45;;;;;;;1.11;100.00;99998.63;5222297;28;20052;-83
2021/01/26 06:27:24;;;;;;;38.90;24.80;;;;;;;1.17;100.00;100004.59;5226238;28;20060;-83
2021/01/26 06:30:02;;;;;;;38.38;24.15;;;;;;;1.05;100.00;99999.53;5226445;28;20094;-83
2021/01/26 06:32:54;;;;;;;46.85;25.35;;;;;;;1.10;100.00;100013.19;5223197;28;20017;-83
2021/01/26 06:35:37;;;;;;;39.28;24.42;;;;;;;1.14;100.00;100020.06;5219442;28;20029;-83
2021/01/26 06:38:32;;;;;;;38.63;23.70;;;;;;;1.17;100.00;100021.72;5217785;28;20603;-83
2021/01/26 06:41:29;;;;;;;40.45;24.90;;;;;;;1.19;100.00;100020.00;5220994;28;20138;-83
2021/01/26 06:44:09;;;;;;;41.22;25.13;;;;;;;1.07;100.00;100020.94;5221097;28;20037;-83
2021/01/26 06:46:56;;;;;;;43.97;25.65;;;;;;;1.07;100.00;100020.94;5223760;28;20458;-84
2021/01/26 06:49:45;;;;;;;35.28;22.90;;;;;;;1.18;100.00;100026.00;5222229;28;20395;-81
2021/01/26 06:52:31;;;;;;;39.40;24.27;;;;;;;1.28;100.00;100031.13;5215226;28;20025;-81
2021/01/26 06:55:19;;;;;;;;;;;;;;;1.43;100.00;100028.38;5222311;28;20806;-81
2021/01/26 06:57:50;;;;;;;33.05;20.98;;;;;;;1.44;100.00;100030.09;5222709;28;19940;-85
2021/01/26 07:00:35;;;;;;;34.15;21.85;;;;;;;1.16;100.00;100033.75;5222935;28;20059;-84
2021/01/26 07:03:30;;;;;;;36.40;22.95;;;;;;;1.19;100.00;100038.88;5222600;28;20025;-83
2021/01/26 07:06:03;;;;;;;34.60;22.13;;;;;;;1.24;100.00;100044.84;5223022;28;20040;-84
2021/01/26 07:08:49;;;;;;;36.95;22.60;;;;;;;1.16;100.00;100044.06;5223492;28;20078;-83
2021/01/26 07:11:22;;;;;;;;;;;;;;;1.25;100.00;100051.69;5224701;28;20415;-84
2021/01/26 07:13:57;;;;;;;37.90;22.25;;;;;;;1.28;100.00;100055.97;5224261;28;19920;-84
2021/01/26 07:16:34;;;;;;;38.42;23.38;;;;;;;1.15;100.00;100064.63;5225295;28;20035;-84
2021/01/26 07:19:29;;;;;;;37.15;21.92;;;;;;;1.22;100.00;100063.75;5224775;28;20479;-85
2021/01/26 07:22:25;;;;;;;35.97;22.67;;;;;;;1.29;100.00;100066.28;5228969;28;20039;-83
2021/01/26 07:25:34;;;;;;;35.63;22.75;;;;;;;1.16;100.00;100067.22;5224675;28;20752;-83
2021/01/26 07:28:27;;;;;;;33.70;21.25;;;;;;;1.35;100.00;100081.66;5224312;28;20175;-83
2021/01/26 07:31:08;;;;;;;35.50;22.27;;;;;;;1.45;100.00;100091.03;5224102;28;20475;-84
2021/01/26 07:33:50;;;;;;;34.05;21.20;;;;;;;1.43;100.00;100092.75;5224817;28;20146;-83
2021/01/26 07:36:38;;;;;;;32.15;20.30;;;;;;;1.67;100.00;100105.44;5224215;28;20028;-84
2021/01/26 07:39:32;;;;;;;35.42;20.27;;;;;;;1.90;100.00;100106.09;5223991;28;20037;-83
2021/01/26 07:42:15;;;;;;;30.98;20.15;;;;;;;1.69;100.00;100114.03;5223038;28;20017;-83
2021/01/26 07:45:11;;;;;;;33.33;21.20;;;;;;;1.88;100.00;100113.88;5228922;28;20059;-84
2021/01/26 07:47:58;;;;;;;31.10;20.15;;;;;;;1.99;100.00;100118.94;5223860;28;20029;-83
2021/01/26 07:50:45;;;;;;;34.17;19.88;;;;;;;2.08;100.00;100122.28;5223049;28;20021;-83
2021/01/26 07:53:28;;;;;;;36.85;21.25;;;;;;;1.68;100.00;100132.03;5223102;28;20110;-83
2021/01/26 07:56:18;;;;;;;35.63;20.83;;;;;;;1.69;100.00;100134.63;5223534;28;20422;-83
2021/01/26 07:58:49;;;;;;;33.50;20.00;;;;;;;1.94;100.00;100142.16;5223822;28;20021;-83
2021/01/26 08:01:25;;;;;;;33.67;20.00;;;;;;;2.00;100.00;100156.69;5223292;28;20024;-83
2021/01/26 08:04:03;;;;;;;35.55;20.25;;;;;;;1.84;100.00;100161.09;5222509;28;20055;-83
2021/01/26 08:06:36;;;;;;;38.08;22.25;;;;;;;1.74;100.00;100153.44;5222999;28;20104;-84
2021/01/26 08:09:13;;;;;;;37.30;21.20;;;;;;;1.80;100.00;100168.88;5234556;28;20033;-84
2021/01/26 08:11:56;;;;;;;36.88;21.13;;;;;;;1.88;100.00;100175.69;5239205;28;20020;-84
2021/01/26 08:14:31;;;;;;;31.27;20.33;;;;;;;1.87;100.00;100176.56;5237230;28;20037;-85
2021/01/26 08:17:04;;;;;;;32.95;21.85;;;;;;;2.03;100.00;100182.44;5237272;28;20025;-85
2021/01/26 08:19:40;;;;;;;31.73;19.42;;;;;;;2.09;100.00;100193.56;5236804;28;20021;-85
2021/01/26 08:22:17;;;;;;;37.65;22.38;;;;;;;2.08;100.00;100186.69;5239518;28;20728;-84
2021/01/26 08:24:58;;;;;;;31.52;20.80;;;;;;;2.13;100.00;100194.41;5236708;28;20036;-84
2021/01/26 08:27:28;;;;;;;35.95;22.95;;;;;;;1.82;100.00;100201.47;5236951;28;20028;-85
2021/01/26 08:30:01;;;;;;;37.03;22.17;;;;;;;2.02;100.00;100201.34;5237319;28;20017;-85
2021/01/26 08:32:31;;;;;;;36.60;23.00;;;;;;;2.08;100.00;100201.28;5236346;28;20595;-85
2021/01/26 08:35:31;;;;;;;36.53;22.73;;;;;;;2.02;100.00;100207.34;5234086;28;20051;-85
2021/01/26 08:38:03;;;;;;;38.03;23.95;;;;;;;2.28;100.00;100209.72;5232166;28;20017;-84
2021/01/26 08:40:33;;;;;;;36.25;22.58;;;;;;;2.23;100.00;100206.31;5234534;28;20029;-84
2021/01/26 08:43:05;;;;;;;34.80;21.23;;;;;;;2.36;100.00;100210.50;5233582;28;20062;-84
2021/01/26 08:45:36;;;;;;;34.22;22.75;;;;;;;2.28;100.00;100214.88;5238491;28;20035;-84
2021/01/26 08:48:08;;;;;;;34.45;21.88;;;;;;;2.08;100.00;100216.75;5237201;28;20029;-83
2021/01/26 08:51:01;;;;;;;35.70;22.90;;;;;;;2.32;100.00;100216.56;5238036;28;20021;-84
2021/01/26 08:53:38;;;;;;;36.83;23.77;;;;;;;2.24;100.00;100224.38;5235754;28;20028;-83
2021/01/26 08:56:18;;;;;;;39.17;25.08;;;;;;;2.06;100.00;100233.94;5236425;28;20056;-84
2021/01/26 08:58:53;;;;;;;46.22;26.60;;;;;;;2.33;100.00;100233.75;5235255;28;20025;-84
2021/01/26 09:01:23;;;;;;;42.60;25.98;;;;;;;2.45;100.00;100243.94;5235533;28;20025;-85
2021/01/26 09:04:18;;;;;;;40.25;24.08;;;;;;;2.37;100.00;100245.72;5236035;28;20021;-83
2021/01/26 09:06:49;;;;;;;40.07;24.63;;;;;;;2.54;100.00;100249.03;5236447;28;20028;-84
2021/01/26 09:09:19;;;;;;;35.97;23.30;;;;;;;2.17;100.00;100243.31;5234951;28;20275;-84
2021/01/26 09:11:53;;;;;;;37.33;23.90;;;;;;;2.19;100.00;100257.03;5236644;28;20025;-84
2021/01/26 09:14:34;;;;;;;41.35;24.45;;;;;;;2.39;100.00;100252.59;5235592;28;20263;-83
2021/01/26 09:17:31;;;;;;;39.38;24.17;;;;;;;2.46;100.00;100254.25;5236408;28;20043;-84
2021/01/26 09:20:24;;;;;;;38.90;25.00;;;;;;;2.60;100.00;100259.28;5236034;28;20029;-84
2021/01/26 09:23:03;;;;;;;38.40;24.23;;;;;;;2.57;100.00;100260.19;5235300;28;20027;-83
2021/01/26 09:25:40;;;;;;;45.50;26.13;;;;;;;2.70;100.00;100276.41;5237845;28;20096;-84
2021/01/26 09:28:15;;;;;;;51.15;32.13;;;;;;;2.80;100.00;100280.59;5238436;28;20039;-84
2021/01/26 09:30:47;;;;;;;62.60;40.17;;;;;;;2.70;100.00;100291.88;5235206;28;20040;-84
2021/01/26 09:33:22;;;;;;;51.17;32.63;;;;;;;2.68;100.00;100291.88;5234301;28;20039;-84
2021/01/26 09:36:01;;;;;;;44.72;30.00;;;;;;;2.70;100.00;100305.59;5241621;28;20021;-84
2021/01/26 09:38:36;;;;;;;50.53;32.33;;;;;;;2.75;100.00;100303.00;5237177;28;20025;-84
2021/01/26 09:41:12;;;;;;;40.72;26.17;;;;;;;2.65;100.00;100304.81;5240295;28;20029;-83
2021/01/26 09:43:48;;;;;;;45.20;28.33;;;;;;;2.68;100.00;100314.25;5240664;28;20173;-84
2021/01/26 09:46:30;;;;;;;;;;;;;;;2.60;100.00;100310.84;5243951;28;20094;-83
2021/01/26 09:49:23;;;;;;;45.60;28.83;;;;;;;2.45;100.00;100322.16;5238088;28;19909;-83
2021/01/26 09:52:00;;;;;;;49.17;29.45;;;;;;;2.46;100.00;100323.88;5236450;28;20029;-83
2021/01/26 09:54:34;;;;;;;53.75;30.02;;;;;;;2.42;100.00;100327.34;5225847;28;20037;-82
2021/01/26 09:57:08;;;;;;;50.67;31.70;;;;;;;2.46;100.00;100335.88;5225184;28;20032;-82
2021/01/26 09:59:39;;;;;;;51.70;31.75;;;;;;;2.50;100.00;100340.19;5223975;28;20124;-83
2021/01/26 10:02:15;;;;;;;50.45;30.90;;;;;;;2.38;100.00;100346.28;5224810;28;20643;-82
2021/01/26 10:04:46;;;;;;;52.45;31.90;;;;;;;2.49;100.00;100353.94;5223515;28;20025;-82
2021/01/26 10:07:18;;;;;;;58.60;33.88;;;;;;;2.40;100.00;100357.44;5222564;28;20108;-83
2021/01/26 10:09:49;;;;;;;53.38;32.30;;;;;;;2.37;100.00;100367.75;5223212;28;20112;-83
2021/01/26 10:12:26;;;;;;;55.33;31.85;;;;;;;2.27;100.00;100366.09;5223636;28;20091;-82
2021/01/26 10:15:26;;;;;;;56.90;32.83;;;;;;;2.18;100.00;100367.88;5224607;28;20032;-83
2021/01/26 10:18:32;;;;;;;94.53;43.72;;;;;;;2.32;100.00;100368.66;5225710;28;20645;-83
2021/01/26 10:21:06;;;;;;;77.03;42.13;;;;;;;2.40;100.00;100369.47;5227298;28;20056;-82
2021/01/26 10:23:45;;;;;;;68.03;37.35;;;;;;;2.46;100.00;100365.13;5225182;28;20037;-82
2021/01/26 10:26:27;;;;;;;65.72;37.58;;;;;;;2.61;100.00;100364.16;5225926;28;20061;-82
2021/01/26 10:29:02;;;;;;;62.90;36.55;;;;;;;2.56;100.00;100356.47;5225010;28;20028;-82
2021/01/26 10:32:01;;;;;;;59.72;36.55;;;;;;;2.51;100.00;100365.09;5224190;28;20028;-82
2021/01/26 10:34:31;;;;;;;61.13;36.45;;;;;;;2.52;100.00;100379.72;5220307;28;20633;-82
2021/01/26 10:37:10;;;;;;;65.63;36.92;;;;;;;2.65;100.00;100377.03;5224081;28;20055;-82
2021/01/26 10:39:45;;;;;;;65.97;38.20;;;;;;;2.68;100.00;100377.00;5222175;28;20029;-82
2021/01/26 10:42:22;;;;;;;66.22;38.63;;;;;;;2.91;100.00;100384.56;5220987;28;20021;-82
2021/01/26 10:44:54;;;;;;;110.28;57.60;;;;;;;2.79;100.00;100385.53;5220319;28;20460;-82
2021/01/26 10:47:37;;;;;;;106.78;58.85;;;;;;;2.82;100.00;100400.13;5222380;28;20025;-83
2021/01/26 10:50:29;;;;;;;76.97;45.40;;;;;;;2.70;100.00;100406.22;5220711;28;20044;-83
2021/01/26 10:52:59;;;;;;;77.18;43.78;;;;;;;2.49;100.00;100411.50;5222091;28;20033;-82
2021/01/26 10:55:30;;;;;;;71.70;42.17;;;;;;;2.52;100.00;100410.66;5231168;28;20376;-84
2021/01/26 10:58:00;;;;;;;73.00;42.08;;;;;;;2.77;100.00;100422.50;5233110;28;20048;-83
2021/01/26 11:00:30;;;;;;;73.82;42.60;;;;;;;2.83;100.00;100419.91;5232041;28;20055;-83
2021/01/26 11:03:01;;;;;;;74.28;41.17;;;;;;;2.68;100.00;100427.75;5225165;28;20162;-82
2021/01/26 11:05:31;;;;;;;69.35;40.53;;;;;;;2.64;100.00;100420.88;5222560;28;20476;-82
2021/01/26 11:08:01;;;;;;;73.32;41.45;;;;;;;2.77;100.00;100427.66;5221765;28;20187;-82
2021/01/26 11:10:31;;;;;;;72.15;40.33;;;;;;;2.76;100.00;100438.84;5223065;28;20028;-82
2021/01/26 11:13:02;;;;;;;72.22;40.42;;;;;;;2.83;100.00;100430.22;5231058;28;20048;-83
2021/01/26 11:15:33;;;;;;;67.88;39.58;;;;;;;2.95;100.00;100427.53;5236679;28;20367;-83
2021/01/26 11:18:04;;;;;;;70.82;40.60;;;;;;;3.02;100.00;100431.81;5236188;28;20036;-83
2021/01/26 11:20:35;;;;;;;71.60;41.13;;;;;;;3.01;100.00;100432.66;5233591;28;20035;-83
2021/01/26 11:23:06;;;;;;;68.28;41.42;;;;;;;3.00;100.00;100431.78;5234412;28;20111;-84
2021/01/26 11:25:37;;;;;;;65.80;37.95;;;;;;;3.10;100.00;100419.69;5223788;28;20094;-83
2021/01/26 11:28:08;;;;;;;65.85;39.58;;;;;;;2.95;100.00;100427.53;5221028;28;20017;-83
2021/01/26 11:30:38;;;;;;;66.55;38.42;;;;;;;2.93;100.00;100431.84;5222578;28;20483;-83
2021/01/26 11:33:09;;;;;;;68.35;40.33;;;;;;;3.07;100.00;100442.94;5222172;28;20033;-83
2021/01/26 11:35:39;;;;;;;62.65;37.67;;;;;;;3.06;100.00;100436.91;5228042;28;20052;-83
2021/01/26 11:38:09;;;;;;;61.85;38.15;;;;;;;2.97;100.00;100446.44;5224896;28;20032;-83
2021/01/26 11:40:40;;;;;;;59.20;35.58;;;;;;;2.98;100.00;100445.56;5224451;28;20029;-83
2021/01/26 11:43:10;;;;;;;62.17;37.80;;;;;;;3.06;100.00;100454.97;5223638;28;20020;-83
2021/01/26 11:45:42;;;;;;;61.40;38.45;;;;;;;2.98;100.00;100451.59;5224824;28;20028;-83
2021/01/26 11:48:12;;;;;;;62.53;38.15;;;;;;;3.10;100.00;100458.41;5225145;28;20082;-83
2021/01/26 11:50:43;;;;;;;62.53;38.05;;;;;;;2.96;100.00;100455.94;5222418;28;20017;-82
2021/01/26 11:53:15;;;;;;;63.05;38.45;;;;;;;3.09;100.00;100456.69;5225470;28;20063;-82
2021/01/26 11:55:46;;;;;;;66.35;39.47;;;;;;;3.03;100.00;100461.91;5226692;28;20032;-83
2021/01/26 11:58:17;;;;;;;60.38;38.75;;;;;;;3.00;100.00;100462.78;5226658;28;20150;-84
2021/01/26 12:00:47;;;;;;;65.80;39.58;;;;;;;3.06;100.00;100474.78;5234082;28;20441;-84
2021/01/26 12:03:18;;;;;;;61.45;37.40;;;;;;;3.01;100.00;100472.22;5237719;28;20068;-83
2021/01/26 12:05:48;;;;;;;63.15;38.45;;;;;;;3.07;100.00;100468.75;5239129;28;20024;-83